createdAt,value
2017-08-01T00:02:17.027Z,12.67
2017-08-01T00:04:45.379Z,12.23
2017-08-01T00:07:13.736Z,7.43
2017-08-01T00:09:42.700Z,19.00
2017-08-01T00:12:11.474Z,15.13
2017-08-01T00:14:39.843Z,10.80
2017-08-01T00:17:08.312Z,14.37
2017-08-01T00:19:36.867Z,11.03
2017-08-01T00:22:05.236Z,17.93
2017-08-01T00:24:33.613Z,9.13
2017-08-01T00:27:02.009Z,13.40
2017-08-01T00:29:30.370Z,9.60
2017-08-01T00:31:58.739Z,8.10
2017-08-01T00:34:27.495Z,15.80
2017-08-01T00:36:56.082Z,10.30
2017-08-01T00:39:24.433Z,8.77
2017-08-01T00:41:52.798Z,10.10
2017-08-01T00:44:21.173Z,21.60
2017-08-01T00:46:49.544Z,11.13
2017-08-01T00:49:17.964Z,12.80
2017-08-01T00:51:46.328Z,18.10
2017-08-01T00:54:14.709Z,27.33
2017-08-01T00:56:43.118Z,15.80
2017-08-01T00:59:11.484Z,10.30
2017-08-01T01:01:39.859Z,9.70
2017-08-01T01:04:08.331Z,11.03
2017-08-01T01:06:36.803Z,8.60
2017-08-01T01:09:05.168Z,31.23
2017-08-01T01:11:33.536Z,21.13
2017-08-01T01:14:01.896Z,12.37
2017-08-01T01:16:30.898Z,8.00
2017-08-01T01:18:59.748Z,13.80
2017-08-01T01:21:28.113Z,20.83
2017-08-01T01:23:56.472Z,8.97
2017-08-01T01:26:24.831Z,18.37
2017-08-01T01:28:53.592Z,14.33
2017-08-01T01:31:22.001Z,18.43
2017-08-01T01:33:50.768Z,15.50
2017-08-01T01:36:19.515Z,17.77
2017-08-01T01:38:47.922Z,12.13
2017-08-01T01:41:16.278Z,15.17
2017-08-01T01:43:44.657Z,11.17
2017-08-01T01:46:13.017Z,12.73
2017-08-01T01:48:41.640Z,10.53
2017-08-01T01:51:09.993Z,10.63
2017-08-01T01:53:38.356Z,11.33
2017-08-01T01:56:06.768Z,8.53
2017-08-01T01:58:35.130Z,20.77
2017-08-01T02:01:03.505Z,10.03
2017-08-01T02:03:31.863Z,11.70
2017-08-01T02:06:00.956Z,11.23
2017-08-01T02:08:29.313Z,10.60
2017-08-01T02:10:58.073Z,9.60
2017-08-01T02:13:26.443Z,9.67
2017-08-01T02:15:54.928Z,9.67
2017-08-01T02:18:23.297Z,9.67
2017-08-01T02:20:51.650Z,11.33
2017-08-01T02:23:20.024Z,15.10
2017-08-01T02:25:48.385Z,17.80
2017-08-01T02:28:17.148Z,10.23
2017-08-01T02:30:45.514Z,12.80
2017-08-01T02:33:13.883Z,10.97
2017-08-01T02:35:42.246Z,9.93
2017-08-01T02:38:10.624Z,13.77
2017-08-01T02:40:38.979Z,15.07
2017-08-01T02:43:07.758Z,10.70
2017-08-01T02:45:36.517Z,11.33
2017-08-01T02:48:04.900Z,14.20
2017-08-01T02:50:33.258Z,18.60
2017-08-01T02:53:01.859Z,8.93
2017-08-01T02:55:30.232Z,23.53
2017-08-01T02:57:58.612Z,29.43
2017-08-01T03:00:26.981Z,14.30
2017-08-01T03:02:55.381Z,12.97
2017-08-01T03:05:23.756Z,14.33
2017-08-01T03:07:52.116Z,19.57
2017-08-01T03:10:20.496Z,11.90
2017-08-01T03:12:48.863Z,16.07
2017-08-01T03:15:17.341Z,13.47
2017-08-01T03:17:45.710Z,13.17
2017-08-01T03:20:14.433Z,24.50
2017-08-01T03:22:42.799Z,12.80
2017-08-01T03:25:11.153Z,11.33
2017-08-01T03:27:39.553Z,15.17
2017-08-01T03:30:07.921Z,25.23
2017-08-01T03:32:36.395Z,17.67
2017-08-01T03:35:04.760Z,15.30
2017-08-01T03:37:33.128Z,16.43
2017-08-01T03:40:01.889Z,27.60
2017-08-01T03:42:30.253Z,12.70
2017-08-01T03:44:58.615Z,16.10
2017-08-01T03:47:27.326Z,20.20
2017-08-01T03:49:55.717Z,14.07
2017-08-01T03:52:24.199Z,14.50
2017-08-01T03:54:52.568Z,18.43
2017-08-01T03:57:20.919Z,14.83
2017-08-01T03:59:49.295Z,15.10
2017-08-01T04:02:17.646Z,21.27
2017-08-01T04:04:46.411Z,15.83
2017-08-01T04:07:14.777Z,13.53
2017-08-01T04:09:43.161Z,16.63
2017-08-01T04:12:11.531Z,14.90
2017-08-01T04:14:39.918Z,14.00
2017-08-01T04:17:08.294Z,19.30
2017-08-01T04:19:37.086Z,20.30
2017-08-01T04:22:05.533Z,16.17
2017-08-01T04:24:33.905Z,13.60
2017-08-01T04:27:02.278Z,20.47
2017-08-01T04:29:30.650Z,15.13
2017-08-01T04:31:59.049Z,20.00
2017-08-01T04:34:27.420Z,29.30
2017-08-01T04:36:56.083Z,20.53
2017-08-01T04:39:24.853Z,27.33
2017-08-01T04:41:53.228Z,17.77
2017-08-01T04:44:21.581Z,20.97
2017-08-01T04:46:49.951Z,16.70
2017-08-01T04:49:18.348Z,13.53
2017-08-01T04:51:46.937Z,11.27
2017-08-01T06:18:06.833Z,63.60
2017-08-01T06:20:35.239Z,43.90
2017-08-01T06:23:03.668Z,30.40
2017-08-01T06:25:32.063Z,26.67
2017-08-01T06:28:00.433Z,59.47
2017-08-01T06:30:28.810Z,48.23
2017-08-01T06:32:57.176Z,36.70
2017-08-01T06:35:25.874Z,43.43
2017-08-01T06:37:54.489Z,37.57
2017-08-01T06:40:23.244Z,35.80
2017-08-01T06:42:51.611Z,40.63
2017-08-01T06:45:19.996Z,58.17
2017-08-01T06:47:48.377Z,39.63
2017-08-01T06:50:16.769Z,55.20
2017-08-01T06:52:45.153Z,76.03
2017-08-01T06:55:13.515Z,64.17
2017-08-01T06:57:41.997Z,81.97
2017-08-01T07:00:10.856Z,47.13
2017-08-01T07:02:39.245Z,38.30
